Pagina principale
METAR-TAF:

METAR-TAF

Aeroporti :

Frontone, Italia

latitudine: 43-31N, longitudine: 012-44E, altezza: 570 m

Osservazione

Il bollettino è stato emesso 42 minuti fa, alle 15:55 UTC
Vento 3 kt da nord/nord-est
Temperature 16°C
Umidità 55%
Pressione 1015 hPa
Visibilità 10 km o più
Poco nuvoloso ad un'altezza di 3200 ft

METAR: LIVF 311555Z 03003KT 9999 FEW032 16/07 Q1015 RMK BKN SCT080 MON S CLD SCT VAL NIL VIS MIN 9999

Ora: 18:37 (16:37 UTC)


TAF: mancante

Osservazioni e previsioni meteorologiche di più di 4000 aeroporti (messaggi METAR e TAF).

Le stazioni disponibili sono rappresentate dai dischi gialli e rossi sulla carta.

Puntare il mouse per vedere il nome della stazione.

Clicca sopra per visualizzare le osservazioni e previsioni meteorologiche.

Per cambiare la mappa : fare clic sui pulsanti verdi con una croce nera per ingrandire, il pulsante verde con un trattino per diminuire, o sulla freccia verde per le mappe adiacenti.


METAR-TAF: